Time;durP1;ratioP1;P1;durP2;ratioP2;P2;SDS_P1;SDS_P2;PMS_P1;PMS_P2;Temp;Humidity;BMP_temperature;BMP_pressure;BME280_temperature;BME280_humidity;BME280_pressure;Samples;Min_cycle;Max_cycle;Signal;HPM_P1;HPM_P2
2020/12/28 00:01:57;;;;;;;0.47;0.47;;;6.50;99.90;;;;;;5093278;28;20170;-75
2020/12/28 00:04:23;;;;;;;0.17;0.17;;;6.50;99.90;;;;;;5093181;28;20212;-74
2020/12/28 00:06:48;;;;;;;0.75;0.75;;;6.40;99.90;;;;;;5093034;28;20625;-74
2020/12/28 00:09:14;;;;;;;0.20;0.20;;;6.60;99.90;;;;;;5093167;28;20170;-74
2020/12/28 00:11:40;;;;;;;0.40;0.40;;;6.50;99.90;;;;;;5093157;28;20170;-74
2020/12/28 00:14:06;;;;;;;0.20;0.20;;;6.50;99.90;;;;;;5093037;28;20657;-74
2020/12/28 00:16:32;;;;;;;0.40;0.40;;;6.40;99.90;;;;;;5093079;28;20200;-75
2020/12/28 00:18:58;;;;;;;0.30;0.22;;;6.30;99.90;;;;;;5093023;28;20292;-75
2020/12/28 00:21:24;;;;;;;0.75;0.75;;;6.30;99.90;;;;;;5093109;28;20252;-76
2020/12/28 00:23:49;;;;;;;0.65;0.65;;;6.10;99.90;;;;;;5093406;28;20245;-75
2020/12/28 00:26:15;;;;;;;0.45;0.45;;;6.10;99.90;;;;;;5093071;28;20250;-75
2020/12/28 00:28:41;;;;;;;0.40;0.40;;;6.20;99.90;;;;;;5092827;28;20229;-75
2020/12/28 00:31:10;;;;;;;0.63;0.45;;;6.20;99.90;;;;;;5092961;28;20584;-75
2020/12/28 00:33:37;;;;;;;0.40;0.40;;;6.40;99.90;;;;;;5092950;28;20169;-75
2020/12/28 00:36:02;;;;;;;0.10;0.10;;;6.30;99.90;;;;;;5074701;28;20193;-76
2020/12/28 00:38:28;;;;;;;15.00;1.23;;;6.20;99.90;;;;;;5093082;28;20159;-75
2020/12/28 00:40:54;;;;;;;0.30;0.30;;;6.20;99.90;;;;;;5092974;28;20166;-75
2020/12/28 00:43:19;;;;;;;0.85;0.50;;;6.20;99.90;;;;;;5092836;28;20286;-75
2020/12/28 00:45:45;;;;;;;0.68;0.68;;;5.90;99.90;;;;;;5092723;28;20182;-75
2020/12/28 00:48:13;;;;;;;6.13;2.63;;;5.70;99.90;;;;;;5092769;28;20220;-75
2020/12/28 00:50:38;;;;;;;0.38;0.38;;;5.70;99.90;;;;;;5092762;28;20162;-74
2020/12/28 00:53:04;;;;;;;0.40;0.40;;;5.70;99.90;;;;;;5092797;28;20557;-75
2020/12/28 00:55:29;;;;;;;0.25;0.25;;;5.90;99.90;;;;;;5092534;28;20778;-75
2020/12/28 00:57:55;;;;;;;0.20;0.20;;;5.90;99.90;;;;;;5094382;28;20184;-76
2020/12/28 01:00:21;;;;;;;0.20;0.20;;;6.00;99.90;;;;;;5096434;28;20200;-74
2020/12/28 01:02:46;;;;;;;0.20;0.20;;;6.00;99.90;;;;;;5096392;28;20161;-75
2020/12/28 01:05:12;;;;;;;0.75;0.65;;;6.20;99.90;;;;;;5096280;28;20250;-75
2020/12/28 01:07:37;;;;;;;0.50;0.50;;;6.10;99.90;;;;;;5096415;28;20166;-74
2020/12/28 01:10:04;;;;;;;0.15;0.15;;;5.80;99.90;;;;;;5096265;28;20158;-75
2020/12/28 01:12:31;;;;;;;0.20;0.20;;;5.80;99.90;;;;;;5096260;28;20164;-76
2020/12/28 01:14:57;;;;;;;0.22;0.22;;;5.70;99.90;;;;;;5096033;28;20200;-76
2020/12/28 01:17:23;;;;;;;0.20;0.20;;;5.80;99.90;;;;;;5096221;28;20212;-74
2020/12/28 01:19:48;;;;;;;0.20;0.20;;;5.90;99.90;;;;;;5096174;28;20560;-76
2020/12/28 01:22:14;;;;;;;0.47;0.47;;;6.10;99.90;;;;;;5095996;28;20166;-75
2020/12/28 01:24:39;;;;;;;0.85;0.85;;;6.00;99.90;;;;;;5096029;28;20190;-76
2020/12/28 01:27:05;;;;;;;0.55;0.55;;;5.90;99.90;;;;;;5095779;28;20206;-76
2020/12/28 01:29:30;;;;;;;0.40;0.40;;;5.90;99.90;;;;;;5095902;28;20170;-74
2020/12/28 01:31:56;;;;;;;0.20;0.20;;;5.90;99.90;;;;;;5095859;28;20177;-75
2020/12/28 01:34:22;;;;;;;1.58;0.75;;;5.80;99.90;;;;;;5095681;28;20190;-75
2020/12/28 01:36:47;;;;;;;0.68;0.68;;;5.90;99.90;;;;;;5077515;28;20178;-75
2020/12/28 01:39:13;;;;;;;0.63;0.63;;;6.00;99.90;;;;;;5095655;28;20656;-74
2020/12/28 01:41:38;;;;;;;0.22;0.22;;;5.90;99.90;;;;;;5095790;28;20197;-75
2020/12/28 01:44:04;;;;;;;1.48;1.38;;;5.80;99.90;;;;;;5095574;28;20182;-76
2020/12/28 01:46:29;;;;;;;0.17;0.17;;;5.90;99.90;;;;;;5095606;28;20158;-75
2020/12/28 01:48:55;;;;;;;0.45;0.45;;;5.80;99.90;;;;;;5095542;28;20622;-76
2020/12/28 01:51:21;;;;;;;0.50;0.50;;;5.80;99.90;;;;;;5095507;28;20526;-75
2020/12/28 01:53:47;;;;;;;0.30;0.30;;;5.70;99.90;;;;;;5095351;28;20204;-75
2020/12/28 01:56:14;;;;;;;0.38;0.38;;;5.80;99.90;;;;;;5076834;28;20217;-75
2020/12/28 01:58:40;;;;;;;0.20;0.20;;;5.60;99.90;;;;;;5094899;28;20165;-74
2020/12/28 02:01:07;;;;;;;0.30;0.30;;;5.50;99.90;;;;;;5095102;28;20166;-75
2020/12/28 02:03:32;;;;;;;0.17;0.17;;;5.50;99.90;;;;;;5095287;28;20522;-74
2020/12/28 02:05:58;;;;;;;0.10;0.10;;;5.50;99.90;;;;;;5095156;28;20268;-74
2020/12/28 02:08:23;;;;;;;4.05;1.65;;;5.60;99.90;;;;;;5094887;28;20566;-75
2020/12/28 02:10:54;;;;;;;0.40;0.40;;;5.60;99.90;;;;;;5095065;28;20174;-74
2020/12/28 02:13:20;;;;;;;0.30;0.30;;;5.60;99.90;;;;;;5095137;28;20158;-75
2020/12/28 02:15:46;;;;;;;0.20;0.20;;;5.50;99.90;;;;;;5094862;28;20205;-75
2020/12/28 02:18:13;;;;;;;0.95;0.70;;;5.50;99.90;;;;;;5095107;28;20168;-75
2020/12/28 02:20:39;;;;;;;0.22;0.22;;;5.40;99.90;;;;;;5094956;28;20498;-74
2020/12/28 02:23:05;;;;;;;0.10;0.10;;;5.60;99.90;;;;;;5094965;28;20237;-75
2020/12/28 02:25:30;;;;;;;0.45;0.30;;;5.70;99.90;;;;;;5094757;28;20675;-75
2020/12/28 02:27:56;;;;;;;0.20;0.20;;;5.60;99.90;;;;;;5076782;28;20218;-76
2020/12/28 02:30:21;;;;;;;0.40;0.32;;;5.60;99.90;;;;;;5094762;28;20173;-75
2020/12/28 02:32:47;;;;;;;0.60;0.60;;;5.60;99.90;;;;;;5094749;28;20161;-75
2020/12/28 02:35:13;;;;;;;0.25;0.25;;;5.50;99.90;;;;;;5094489;28;20189;-75
2020/12/28 02:37:38;;;;;;;0.40;0.40;;;5.60;99.90;;;;;;5094727;28;20188;-75
2020/12/28 02:40:04;;;;;;;0.43;0.43;;;5.60;99.90;;;;;;5094549;28;20157;-75
2020/12/28 02:42:29;;;;;;;0.20;0.20;;;5.50;99.90;;;;;;5094471;28;20161;-75
2020/12/28 02:44:55;;;;;;;0.75;0.75;;;5.40;99.90;;;;;;5094442;28;20193;-75
2020/12/28 02:47:20;;;;;;;0.52;0.52;;;5.30;99.90;;;;;;5094407;28;20169;-75
2020/12/28 02:49:46;;;;;;;0.20;0.20;;;5.50;99.90;;;;;;5094467;28;20241;-74
2020/12/28 02:52:12;;;;;;;12.02;2.63;;;5.30;99.90;;;;;;5094377;28;20247;-75
2020/12/28 02:54:37;;;;;;;0.57;0.40;;;5.20;99.90;;;;;;5094097;28;20194;-74
2020/12/28 02:57:03;;;;;;;0.20;0.20;;;5.20;99.90;;;;;;5094219;28;20269;-74
2020/12/28 02:59:28;;;;;;;0.17;0.17;;;5.30;99.90;;;;;;5094508;28;20158;-74
2020/12/28 03:01:54;;;;;;;0.15;0.15;;;5.20;99.90;;;;;;5094122;28;20158;-74
2020/12/28 03:04:19;;;;;;;0.30;0.30;;;5.20;99.90;;;;;;5094020;28;20190;-74
2020/12/28 03:06:45;;;;;;;0.20;0.20;;;5.40;99.90;;;;;;5094009;28;20158;-74
2020/12/28 03:09:10;;;;;;;0.73;0.73;;;5.50;99.90;;;;;;5094515;28;20169;-74
2020/12/28 03:11:37;;;;;;;5.15;0.43;;;5.50;99.90;;;;;;5093960;28;20257;-75
2020/12/28 03:14:04;;;;;;;0.98;0.75;;;5.50;99.90;;;;;;5092554;28;20195;-74
2020/12/28 03:16:29;;;;;;;0.80;0.40;;;5.30;99.90;;;;;;5093729;28;20194;-74
2020/12/28 03:18:55;;;;;;;0.50;0.50;;;5.40;99.90;;;;;;5093800;28;20161;-76
2020/12/28 03:21:21;;;;;;;0.32;0.32;;;5.60;99.90;;;;;;5093079;28;20178;-75
2020/12/28 03:23:46;;;;;;;0.63;0.63;;;5.60;99.90;;;;;;5093757;28;20158;-76
2020/12/28 03:26:12;;;;;;;0.28;0.28;;;5.60;99.90;;;;;;5093677;28;20162;-75
2020/12/28 03:28:38;;;;;;;0.20;0.20;;;5.40;99.90;;;;;;5093480;28;20218;-75
2020/12/28 03:31:03;;;;;;;0.38;0.38;;;5.40;99.90;;;;;;5093611;28;20166;-75
2020/12/28 03:33:29;;;;;;;0.10;0.10;;;5.40;99.90;;;;;;5093580;28;20191;-74
2020/12/28 03:35:54;;;;;;;0.10;0.10;;;5.20;99.90;;;;;;5093446;28;20201;-75
2020/12/28 03:38:20;;;;;;;0.30;0.30;;;5.10;99.90;;;;;;5093337;28;20176;-74
2020/12/28 03:40:45;;;;;;;0.20;0.20;;;5.20;99.90;;;;;;5093499;28;20177;-75
2020/12/28 03:43:11;;;;;;;1.83;0.70;;;5.30;99.90;;;;;;5093449;28;20159;-74
2020/12/28 03:45:36;;;;;;;0.45;0.45;;;5.40;99.90;;;;;;5075206;28;20190;-76
2020/12/28 03:48:02;;;;;;;0.40;0.40;;;5.50;99.90;;;;;;5093463;28;20257;-75
2020/12/28 03:50:28;;;;;;;0.38;0.38;;;5.40;99.90;;;;;;5093243;28;20524;-75
2020/12/28 03:52:53;;;;;;;0.20;0.20;;;5.50;99.90;;;;;;5093363;28;20521;-74
2020/12/28 03:55:19;;;;;;;0.20;0.20;;;5.50;99.90;;;;;;5093155;28;20611;-74
2020/12/28 03:57:44;;;;;;;0.20;0.20;;;5.30;99.90;;;;;;5093253;28;20170;-75
2020/12/28 04:00:10;;;;;;;0.50;0.50;;;5.30;99.90;;;;;;5075110;28;20629;-75
2020/12/28 04:02:38;;;;;;;0.20;0.20;;;5.50;99.90;;;;;;5093256;28;20161;-74
2020/12/28 04:05:04;;;;;;;0.28;0.28;;;5.50;99.90;;;;;;5075068;28;20246;-75
2020/12/28 04:07:30;;;;;;;0.28;0.28;;;5.40;99.90;;;;;;5075097;28;20220;-75
2020/12/28 04:09:55;;;;;;;0.30;0.30;;;5.60;99.90;;;;;;5075092;28;20694;-74
2020/12/28 04:12:21;;;;;;;0.10;0.10;;;5.50;99.90;;;;;;5093128;28;20177;-75
2020/12/28 04:14:46;;;;;;;1.33;1.30;;;5.60;99.90;;;;;;5092950;28;20186;-74
2020/12/28 04:17:12;;;;;;;0.20;0.20;;;5.60;99.90;;;;;;5093065;28;20166;-74
2020/12/28 04:19:38;;;;;;;0.38;0.38;;;5.60;99.90;;;;;;5093133;28;20162;-74
2020/12/28 04:22:03;;;;;;;0.20;0.20;;;5.70;99.90;;;;;;5092903;28;20251;-75
2020/12/28 04:24:29;;;;;;;0.20;0.20;;;5.60;99.90;;;;;;5092996;28;20186;-75
2020/12/28 04:26:54;;;;;;;0.20;0.20;;;5.70;99.90;;;;;;5074690;28;20205;-75
2020/12/28 04:29:20;;;;;;;0.32;0.32;;;5.80;99.90;;;;;;5092931;28;20159;-75
2020/12/28 04:31:45;;;;;;;0.20;0.20;;;5.80;99.90;;;;;;5094664;28;20177;-75
2020/12/28 04:34:11;;;;;;;1.05;1.00;;;5.80;99.90;;;;;;5096860;28;20280;-75
2020/12/28 04:36:37;;;;;;;0.75;0.68;;;5.90;99.90;;;;;;5096966;28;20579;-74
2020/12/28 04:39:07;;;;;;;0.28;0.28;;;5.80;99.90;;;;;;5096815;28;20166;-75
2020/12/28 04:41:33;;;;;;;0.10;0.10;;;5.80;99.90;;;;;;5096853;28;20212;-75
2020/12/28 04:44:00;;;;;;;0.20;0.20;;;5.80;99.90;;;;;;5096755;28;20515;-76
2020/12/28 04:46:30;;;;;;;0.28;0.28;;;5.50;99.90;;;;;;5096742;28;20154;-74
2020/12/28 04:48:56;;;;;;;0.20;0.20;;;5.50;99.90;;;;;;5096641;28;20213;-75
2020/12/28 04:51:23;;;;;;;2.58;1.02;;;5.60;99.90;;;;;;5078326;28;20533;-75
2020/12/28 04:53:52;;;;;;;0.10;0.10;;;5.60;99.90;;;;;;5096458;28;20613;-75
2020/12/28 04:56:19;;;;;;;0.10;0.10;;;5.60;99.90;;;;;;5096451;28;20190;-75
2020/12/28 04:58:45;;;;;;;1.30;1.20;;;5.50;99.90;;;;;;5096388;28;20206;-74
2020/12/28 05:01:10;;;;;;;0.10;0.10;;;5.50;99.90;;;;;;5096450;28;20253;-75
2020/12/28 05:03:36;;;;;;;0.20;0.20;;;5.60;99.90;;;;;;5096352;28;20150;-75
2020/12/28 05:06:02;;;;;;;0.10;0.10;;;5.50;99.90;;;;;;5096152;28;20190;-75
2020/12/28 05:08:27;;;;;;;0.20;0.20;;;5.50;99.90;;;;;;5096561;28;20173;-75
2020/12/28 05:10:53;;;;;;;0.32;0.32;;;5.50;99.90;;;;;;5096200;28;20172;-75
2020/12/28 05:13:19;;;;;;;0.20;0.20;;;5.60;99.90;;;;;;5096148;28;20197;-74
2020/12/28 05:15:49;;;;;;;2.47;0.85;;;5.80;99.90;;;;;;5095838;28;20255;-75
2020/12/28 05:18:18;;;;;;;1.70;1.67;;;5.90;99.90;;;;;;5096099;28;20177;-74
2020/12/28 05:20:46;;;;;;;0.20;0.20;;;5.80;99.90;;;;;;5096023;28;20207;-74
2020/12/28 05:23:13;;;;;;;0.10;0.10;;;5.70;99.90;;;;;;5095903;28;20162;-74
2020/12/28 05:25:49;;;;;;;0.30;0.30;;;5.60;99.90;;;;;;5095961;28;20189;-74
2020/12/28 05:28:37;;;;;;;1.00;0.98;;;5.50;99.90;;;;;;5095616;28;20220;-74
2020/12/28 05:31:05;;;;;;;1.45;1.10;;;5.60;99.90;;;;;;5095709;28;20161;-75
2020/12/28 05:33:35;;;;;;;1.20;1.20;;;5.50;99.90;;;;;;5077604;28;20169;-75
2020/12/28 05:36:00;;;;;;;0.85;0.85;;;5.60;99.90;;;;;;5095725;28;20299;-74
2020/12/28 05:38:30;;;;;;;3.90;1.58;;;5.60;99.90;;;;;;5095935;28;20179;-74
2020/12/28 05:41:03;;;;;;;0.20;0.20;;;5.50;99.90;;;;;;5095638;28;20527;-75
2020/12/28 05:43:29;;;;;;;0.73;0.73;;;5.50;99.90;;;;;;5094774;28;20154;-74
2020/12/28 05:45:55;;;;;;;1.20;1.00;;;5.40;99.90;;;;;;5077147;28;20208;-75
2020/12/28 05:48:24;;;;;;;0.35;0.28;;;5.60;99.90;;;;;;5095510;28;20559;-75
2020/12/28 05:50:57;;;;;;;2.90;1.65;;;5.40;99.90;;;;;;5095398;28;20668;-75
2020/12/28 05:53:26;;;;;;;0.30;0.30;;;5.40;99.90;;;;;;5077423;28;20165;-75
2020/12/28 05:55:52;;;;;;;0.30;0.30;;;5.50;99.90;;;;;;5095272;28;20201;-75
2020/12/28 05:58:20;;;;;;;0.20;0.20;;;5.50;99.90;;;;;;5095235;28;20203;-74
2020/12/28 06:00:48;;;;;;;0.22;0.22;;;5.50;99.90;;;;;;5095356;28;20219;-75
2020/12/28 06:03:23;;;;;;;0.30;0.30;;;5.60;99.90;;;;;;5095231;28;20199;-75
2020/12/28 06:05:52;;;;;;;15.43;0.85;;;5.50;99.90;;;;;;5094975;28;20177;-75
2020/12/28 06:08:18;;;;;;;0.43;0.43;;;5.50;99.90;;;;;;5095136;28;20166;-75
2020/12/28 06:10:43;;;;;;;0.20;0.20;;;5.50;99.90;;;;;;5095061;28;20166;-75
2020/12/28 06:13:09;;;;;;;0.20;0.20;;;5.50;99.90;;;;;;5095180;28;20246;-74
2020/12/28 06:15:34;;;;;;;0.45;0.45;;;5.50;99.90;;;;;;5094644;28;20198;-74
2020/12/28 06:18:00;;;;;;;0.47;0.47;;;5.50;99.90;;;;;;5093420;28;20168;-74
2020/12/28 06:20:30;;;;;;;0.57;0.57;;;5.40;99.90;;;;;;5094934;28;20197;-76
2020/12/28 06:23:04;;;;;;;0.10;0.10;;;5.60;99.90;;;;;;5095072;28;20169;-74
2020/12/28 06:25:29;;;;;;;2.47;1.55;;;5.60;99.90;;;;;;5094811;28;20185;-74
2020/12/28 06:27:55;;;;;;;0.20;0.20;;;5.50;99.90;;;;;;5094584;28;20255;-76
2020/12/28 06:30:22;;;;;;;10.30;2.22;;;5.50;99.90;;;;;;5094616;28;20163;-76
2020/12/28 06:32:52;;;;;;;0.20;0.20;;;5.20;99.90;;;;;;5094249;28;20146;-77
2020/12/28 06:35:18;;;;;;;0.38;0.30;;;5.30;99.90;;;;;;5094360;28;20236;-77
2020/12/28 06:37:45;;;;;;;0.17;0.17;;;5.50;99.90;;;;;;5094439;28;20169;-77
2020/12/28 06:40:13;;;;;;;0.20;0.20;;;5.60;99.90;;;;;;5094529;28;20182;-78
2020/12/28 06:42:39;;;;;;;0.30;0.30;;;5.60;99.90;;;;;;5094484;28;20170;-74
2020/12/28 06:45:15;;;;;;;0.20;0.20;;;5.50;99.90;;;;;;5094323;28;20219;-75
2020/12/28 06:47:42;;;;;;;0.20;0.20;;;5.50;99.90;;;;;;5094310;28;20180;-75
2020/12/28 06:50:08;;;;;;;0.10;0.10;;;5.40;99.90;;;;;;5094244;28;20161;-74
2020/12/28 06:52:34;;;;;;;0.20;0.20;;;5.50;99.90;;;;;;5094143;28;20166;-75
2020/12/28 06:55:09;;;;;;;0.20;0.20;;;5.60;99.90;;;;;;5093188;28;20309;-75
2020/12/28 06:57:35;;;;;;;2.08;0.70;;;5.70;99.90;;;;;;5094029;28;20178;-74
2020/12/28 07:00:02;;;;;;;0.10;0.10;;;5.40;99.90;;;;;;5094055;28;20169;-75
2020/12/28 07:02:28;;;;;;;0.10;0.10;;;5.30;99.90;;;;;;5094009;28;20177;-74
2020/12/28 07:04:54;;;;;;;0.20;0.20;;;5.30;99.90;;;;;;5107171;23;20692;-76
2020/12/28 07:07:20;;;;;;;0.30;0.30;;;5.40;99.90;;;;;;5094207;28;20166;-76
2020/12/28 07:09:48;;;;;;;0.20;0.20;;;5.50;99.90;;;;;;5094052;28;20504;-75
2020/12/28 07:12:14;;;;;;;0.10;0.10;;;5.70;99.90;;;;;;5094077;28;20273;-77
2020/12/28 07:14:39;;;;;;;0.20;0.20;;;5.90;99.90;;;;;;5093857;28;20653;-75
2020/12/28 07:17:07;;;;;;;2.05;1.00;;;5.90;99.90;;;;;;5093951;28;20497;-76
2020/12/28 07:19:34;;;;;;;0.10;0.10;;;5.90;99.90;;;;;;5093848;28;20154;-74
2020/12/28 07:21:59;;;;;;;0.17;0.17;;;5.70;99.90;;;;;;5092165;28;20253;-76
2020/12/28 07:24:25;;;;;;;1.17;0.40;;;5.80;99.90;;;;;;5091051;28;20277;-75
2020/12/28 07:26:50;;;;;;;0.30;0.30;;;5.70;99.90;;;;;;5091172;28;20204;-75
2020/12/28 07:29:18;;;;;;;0.20;0.20;;;5.70;99.90;;;;;;5092814;28;20178;-75
2020/12/28 07:31:45;;;;;;;0.10;0.10;;;5.70;99.90;;;;;;5093542;28;20197;-75
2020/12/28 07:34:18;;;;;;;0.20;0.20;;;5.80;99.90;;;;;;5093933;28;20644;-75
2020/12/28 07:36:49;;;;;;;0.10;0.10;;;5.90;99.90;;;;;;5093590;28;20192;-75
2020/12/28 07:39:14;;;;;;;0.28;0.28;;;6.00;99.90;;;;;;5093526;28;20177;-76
2020/12/28 07:41:41;;;;;;;0.10;0.10;;;6.00;99.90;;;;;;5093650;28;20158;-76
2020/12/28 07:44:07;;;;;;;0.82;0.82;;;6.00;99.90;;;;;;5093651;28;20534;-78
2020/12/28 07:46:35;;;;;;;2.58;0.50;;;5.90;99.90;;;;;;5093398;28;20228;-76
2020/12/28 07:49:20;;;;;;;0.57;0.57;;;6.00;99.90;;;;;;5093712;28;20170;-76
2020/12/28 07:52:00;;;;;;;3.13;1.23;;;6.00;99.90;;;;;;5093465;28;20683;-78
2020/12/28 07:54:28;;;;;;;0.15;0.15;;;6.00;99.90;;;;;;5093293;28;20181;-75
2020/12/28 07:56:57;;;;;;;4.07;0.65;;;6.10;99.90;;;;;;5093148;28;20193;-76
2020/12/28 07:59:51;;;;;;;0.28;0.28;;;6.00;99.90;;;;;;5093091;28;20243;-78
2020/12/28 08:02:37;;;;;;;0.28;0.28;;;5.90;99.90;;;;;;5093382;28;20550;-78
2020/12/28 08:05:04;;;;;;;0.43;0.43;;;5.90;99.90;;;;;;5092989;28;20255;-76
2020/12/28 08:07:34;;;;;;;0.20;0.20;;;6.00;99.90;;;;;;5093096;28;20169;-78
2020/12/28 08:10:00;;;;;;;0.47;0.47;;;6.10;99.90;;;;;;5091874;28;20644;-76
2020/12/28 08:12:29;;;;;;;0.15;0.15;;;6.20;99.90;;;;;;5093514;28;20169;-82
2020/12/28 08:14:56;;;;;;;0.22;0.22;;;5.80;99.90;;;;;;5093528;28;20264;-82
2020/12/28 08:17:25;;;;;;;1.27;1.10;;;5.80;99.90;;;;;;5093259;28;20173;-80
2020/12/28 08:19:51;;;;;;;0.30;0.30;;;5.90;99.90;;;;;;5093900;28;20169;-78
2020/12/28 08:22:21;;;;;;;1.75;1.10;;;5.90;99.90;;;;;;5093107;28;20169;-78
2020/12/28 08:24:58;;;;;;;20.17;0.95;;;5.80;99.90;;;;;;5092927;28;20205;-79
2020/12/28 08:27:26;;;;;;;0.32;0.32;;;5.70;99.90;;;;;;5093027;28;20184;-78
2020/12/28 08:29:52;;;;;;;0.10;0.10;;;5.60;99.90;;;;;;5093422;28;20704;-82
2020/12/28 08:32:17;;;;;;;0.28;0.28;;;5.70;99.90;;;;;;5092830;28;20633;-81
2020/12/28 08:34:53;;;;;;;4.82;2.72;;;5.60;99.90;;;;;;5091259;28;20212;-76
2020/12/28 08:37:20;;;;;;;0.52;0.52;;;5.50;99.90;;;;;;5092880;28;20178;-79
2020/12/28 08:39:45;;;;;;;0.30;0.30;;;5.50;99.90;;;;;;5093001;28;20151;-80
2020/12/28 08:42:11;;;;;;;0.50;0.50;;;5.60;99.90;;;;;;5092894;28;20517;-80
2020/12/28 08:44:40;;;;;;;1.38;1.27;;;5.60;99.90;;;;;;5091560;28;20185;-80
2020/12/28 08:47:12;;;;;;;0.43;0.43;;;5.60;99.90;;;;;;5092966;28;20602;-80
2020/12/28 08:49:41;;;;;;;0.45;0.45;;;5.70;99.90;;;;;;5092871;28;20159;-78
2020/12/28 08:52:17;;;;;;;0.25;0.25;;;5.70;99.90;;;;;;5093126;28;20167;-80
2020/12/28 08:54:53;;;;;;;0.20;0.20;;;5.70;99.90;;;;;;5082322;28;20201;-74
2020/12/28 08:57:23;;;;;;;0.10;0.10;;;5.70;99.90;;;;;;5089570;28;20173;-78
2020/12/28 08:59:50;;;;;;;0.65;0.65;;;6.00;99.90;;;;;;5090250;28;20150;-74
2020/12/28 09:02:17;;;;;;;0.75;0.52;;;5.80;99.90;;;;;;5090604;28;20235;-76
2020/12/28 09:04:42;;;;;;;0.47;0.22;;;5.60;99.90;;;;;;5091350;28;20228;-76
2020/12/28 09:07:08;;;;;;;0.52;0.52;;;5.70;99.90;;;;;;5090935;28;20166;-77
2020/12/28 09:09:33;;;;;;;0.20;0.20;;;6.00;99.90;;;;;;5090937;28;20224;-77
2020/12/28 09:11:59;;;;;;;0.20;0.20;;;6.00;99.90;;;;;;5092493;28;20727;-76
2020/12/28 09:14:25;;;;;;;0.60;0.60;;;5.90;99.90;;;;;;5090961;28;20276;-78
2020/12/28 09:16:50;;;;;;;0.63;0.63;;;5.70;99.90;;;;;;5083276;28;20221;-79
2020/12/28 09:19:16;;;;;;;4.28;0.85;;;5.70;99.90;;;;;;5083366;28;20167;-78
2020/12/28 09:21:42;;;;;;;4.82;0.75;;;5.90;99.90;;;;;;5073965;28;20162;-76
2020/12/28 09:24:07;;;;;;;0.68;0.68;;;6.00;99.90;;;;;;5079396;28;20250;-77
2020/12/28 09:26:35;;;;;;;0.40;0.40;;;6.10;99.90;;;;;;5094921;28;20664;-77
2020/12/28 09:29:00;;;;;;;0.20;0.20;;;6.20;99.90;;;;;;5095499;28;20170;-78
2020/12/28 09:31:26;;;;;;;0.17;0.17;;;6.20;99.90;;;;;;5094900;28;20526;-82
2020/12/28 09:33:51;;;;;;;0.47;0.47;;;6.30;99.90;;;;;;5095338;28;20182;-78
2020/12/28 09:36:18;;;;;;;0.10;0.10;;;6.30;99.90;;;;;;5094800;28;20299;-77
2020/12/28 09:38:44;;;;;;;0.20;0.20;;;6.10;99.90;;;;;;5094923;28;20673;-77
2020/12/28 09:41:10;;;;;;;0.20;0.20;;;6.10;99.90;;;;;;5077801;28;20185;-77
2020/12/28 09:43:35;;;;;;;0.30;0.30;;;6.10;99.90;;;;;;5094668;28;20450;-77
2020/12/28 09:46:01;;;;;;;0.20;0.20;;;6.10;99.90;;;;;;5094288;28;20190;-78
2020/12/28 09:48:26;;;;;;;0.28;0.28;;;6.30;99.90;;;;;;5078530;28;20218;-77
2020/12/28 09:50:52;;;;;;;0.10;0.10;;;6.30;99.90;;;;;;5073390;28;20178;-77
2020/12/28 09:53:17;;;;;;;0.20;0.20;;;6.20;99.90;;;;;;5082526;28;20171;-77
2020/12/28 09:55:43;;;;;;;0.13;0.13;;;6.10;99.90;;;;;;5078732;28;20216;-77
2020/12/28 09:58:09;;;;;;;14.45;1.35;;;6.20;99.90;;;;;;5085779;28;20163;-77
2020/12/28 10:00:34;;;;;;;1.33;1.23;;;6.40;99.90;;;;;;5091270;28;20162;-76
2020/12/28 10:03:00;;;;;;;0.10;0.10;;;6.50;99.90;;;;;;5074986;28;20179;-79
2020/12/28 10:05:25;;;;;;;0.17;0.17;;;6.80;99.90;;;;;;5056712;28;20226;-76
2020/12/28 10:07:51;;;;;;;0.13;0.13;;;7.00;99.90;;;;;;5090820;28;20178;-80
2020/12/28 10:10:17;;;;;;;0.20;0.20;;;6.80;99.90;;;;;;5075956;28;20256;-77
2020/12/28 10:12:42;;;;;;;0.38;0.38;;;6.70;99.90;;;;;;5093048;28;20562;-76
2020/12/28 10:15:08;;;;;;;0.20;0.20;;;6.80;99.90;;;;;;5094193;28;20190;-80
2020/12/28 10:17:35;;;;;;;0.82;0.82;;;6.90;99.90;;;;;;5093992;28;20169;-76
2020/12/28 10:20:00;;;;;;;0.30;0.30;;;6.90;99.90;;;;;;5090336;28;20692;-82
2020/12/28 10:22:27;;;;;;;3.78;0.80;;;6.60;99.90;;;;;;5091277;28;20284;-80
2020/12/28 10:24:53;;;;;;;0.30;0.30;;;6.60;99.90;;;;;;5072800;28;20646;-80
2020/12/28 10:27:19;;;;;;;0.52;0.52;;;6.60;99.90;;;;;;5073579;28;20166;-79
2020/12/28 10:29:44;;;;;;;0.10;0.10;;;6.70;99.90;;;;;;5073576;28;20644;-81
2020/12/28 10:32:10;;;;;;;3.80;1.58;;;6.30;99.90;;;;;;5055824;28;20189;-80
2020/12/28 10:34:36;;;;;;;0.20;0.20;;;6.50;99.90;;;;;;5081438;28;20232;-80
2020/12/28 10:37:01;;;;;;;0.45;0.45;;;6.60;99.90;;;;;;5093752;28;20193;-80
2020/12/28 10:39:27;;;;;;;0.20;0.20;;;7.00;99.90;;;;;;5093637;28;20189;-80
2020/12/28 10:41:52;;;;;;;0.30;0.30;;;7.00;99.90;;;;;;5092778;28;20178;-78
2020/12/28 10:44:19;;;;;;;0.20;0.20;;;7.10;99.90;;;;;;5093303;28;20650;-76
2020/12/28 10:46:45;;;;;;;0.30;0.30;;;7.20;99.90;;;;;;5093388;28;20158;-76
2020/12/28 10:49:10;;;;;;;0.40;0.40;;;7.20;99.90;;;;;;5092166;28;20177;-76
2020/12/28 10:51:36;;;;;;;0.50;0.50;;;7.30;99.90;;;;;;5072784;28;20173;-76
2020/12/28 10:54:02;;;;;;;0.30;0.30;;;7.50;99.90;;;;;;5085729;28;20217;-75
2020/12/28 10:56:29;;;;;;;0.10;0.10;;;7.80;99.90;;;;;;5074990;28;20205;-75
2020/12/28 10:58:56;;;;;;;0.90;0.47;;;7.90;99.90;;;;;;5093523;28;20659;-74
2020/12/28 11:01:24;;;;;;;0.10;0.10;;;7.50;99.90;;;;;;5092949;28;20248;-75
2020/12/28 11:03:51;;;;;;;0.20;0.20;;;7.40;99.90;;;;;;5092593;28;20214;-77
2020/12/28 11:06:20;;;;;;;0.40;0.40;;;7.50;99.90;;;;;;5093343;28;20241;-75
2020/12/28 11:08:46;;;;;;;0.20;0.20;;;7.50;99.90;;;;;;5093156;28;20207;-75
2020/12/28 11:11:12;;;;;;;0.10;0.10;;;7.50;99.90;;;;;;5074839;28;20614;-77
2020/12/28 11:13:38;;;;;;;8.30;0.85;;;7.60;99.90;;;;;;5092797;28;20237;-76
2020/12/28 11:16:03;;;;;;;0.45;0.45;;;7.70;99.90;;;;;;5093139;28;20213;-78
2020/12/28 11:18:29;;;;;;;2.20;1.35;;;7.80;99.90;;;;;;5093232;28;20237;-75
2020/12/28 11:20:55;;;;;;;0.30;0.30;;;7.90;99.90;;;;;;5092819;28;20204;-76
2020/12/28 11:23:20;;;;;;;0.10;0.10;;;7.80;99.90;;;;;;5093226;28;20162;-78
2020/12/28 11:25:46;;;;;;;0.50;0.50;;;7.80;99.90;;;;;;5093240;28;20608;-81
2020/12/28 11:28:11;;;;;;;0.30;0.30;;;7.80;99.90;;;;;;5093533;28;20169;-76
2020/12/28 11:30:37;;;;;;;0.20;0.20;;;7.80;99.90;;;;;;5093635;28;20169;-74
2020/12/28 11:33:03;;;;;;;0.93;0.88;;;7.90;99.90;;;;;;5093317;28;20174;-79
2020/12/28 11:35:29;;;;;;;0.10;0.10;;;7.80;99.90;;;;;;5092720;28;20208;-75
2020/12/28 11:37:55;;;;;;;1.20;1.10;;;7.90;99.90;;;;;;5092884;28;20260;-75
2020/12/28 11:40:21;;;;;;;7.57;0.95;;;7.90;99.90;;;;;;5093338;28;20154;-75
2020/12/28 11:42:47;;;;;;;0.60;0.60;;;8.00;99.90;;;;;;5092858;28;20169;-78
2020/12/28 11:45:12;;;;;;;0.10;0.10;;;7.90;99.90;;;;;;5092737;28;20644;-75
2020/12/28 11:47:38;;;;;;;0.30;0.30;;;7.80;99.90;;;;;;5092955;28;20161;-77
2020/12/28 11:50:05;;;;;;;0.20;0.20;;;7.70;99.90;;;;;;5092631;28;20253;-79
2020/12/28 11:52:31;;;;;;;0.10;0.10;;;7.80;99.90;;;;;;5092930;28;20154;-77
2020/12/28 11:54:56;;;;;;;0.30;0.30;;;7.90;99.90;;;;;;5092898;28;20663;-73
2020/12/28 11:57:22;;;;;;;0.22;0.22;;;8.00;99.90;;;;;;5093094;28;20174;-77
2020/12/28 11:59:48;;;;;;;0.80;0.80;;;7.90;99.90;;;;;;5093047;28;20625;-75
2020/12/28 12:02:13;;;;;;;6.38;0.57;;;7.90;99.90;;;;;;5093050;28;20205;-75
2020/12/28 12:04:49;;;;;;;0.40;0.40;;;7.90;99.90;;;;;;5092653;28;20225;-78
2020/12/28 12:07:15;;;;;;;0.68;0.68;;;8.10;99.90;;;;;;5092876;28;20173;-78
2020/12/28 12:09:41;;;;;;;0.30;0.30;;;8.10;99.90;;;;;;5092637;28;20565;-74
2020/12/28 12:12:07;;;;;;;0.20;0.20;;;8.20;99.90;;;;;;5092962;28;20173;-74
2020/12/28 12:14:32;;;;;;;0.40;0.40;;;8.10;99.90;;;;;;5092371;28;20204;-78
2020/12/28 12:16:58;;;;;;;0.30;0.30;;;7.90;99.90;;;;;;5092562;28;20194;-78
2020/12/28 12:19:23;;;;;;;0.77;0.77;;;8.00;99.90;;;;;;5092604;28;20174;-79
2020/12/28 12:21:49;;;;;;;1.85;0.43;;;8.20;99.90;;;;;;5092758;28;20176;-76
2020/12/28 12:24:15;;;;;;;0.55;0.55;;;8.40;99.90;;;;;;5095275;28;20189;-74
2020/12/28 12:26:40;;;;;;;0.50;0.50;;;8.40;99.90;;;;;;5106347;28;20154;-76
2020/12/28 12:29:07;;;;;;;0.50;0.50;;;8.60;99.90;;;;;;5115317;28;20165;-76
2020/12/28 12:31:32;;;;;;;1.02;1.02;;;8.60;99.90;;;;;;5099911;28;20664;-77
2020/12/28 12:33:58;;;;;;;0.30;0.30;;;8.60;99.90;;;;;;5093191;28;20170;-76
2020/12/28 12:36:23;;;;;;;1.20;1.15;;;8.80;99.90;;;;;;5074243;28;20236;-75
2020/12/28 12:38:49;;;;;;;0.73;0.73;;;8.80;99.90;;;;;;5092220;28;20158;-73
2020/12/28 12:41:15;;;;;;;0.20;0.20;;;8.70;99.90;;;;;;5092515;28;20223;-78
2020/12/28 12:43:41;;;;;;;0.32;0.32;;;8.70;99.90;;;;;;5074606;28;20578;-76
2020/12/28 12:46:12;;;;;;;0.50;0.50;;;8.50;99.90;;;;;;5092790;28;20194;-74
2020/12/28 12:48:39;;;;;;;0.35;0.35;;;8.80;99.90;;;;;;5089975;28;20168;-74
2020/12/28 12:51:05;;;;;;;0.20;0.20;;;9.20;99.90;;;;;;5085695;28;20185;-76
2020/12/28 12:53:31;;;;;;;0.22;0.22;;;9.00;99.90;;;;;;5091440;28;20166;-74
2020/12/28 12:55:57;;;;;;;0.45;0.35;;;9.00;99.90;;;;;;5094950;28;20220;-76